sensor_id;sensor_type;location;lat;lon;timestamp;P1;durP1;ratioP1;P2;durP2;ratioP2
39482;SDS011;25682;48.438;1.482;2023-03-01T00:01:02;3.80;;;2.42;;
39482;SDS011;25682;48.438;1.482;2023-03-01T00:03:29;3.38;;;2.30;;
39482;SDS011;25682;48.438;1.482;2023-03-01T00:05:55;4.30;;;2.40;;
39482;SDS011;25682;48.438;1.482;2023-03-01T00:08:21;3.05;;;2.35;;
39482;SDS011;25682;48.438;1.482;2023-03-01T00:10:47;4.28;;;2.20;;
39482;SDS011;25682;48.438;1.482;2023-03-01T00:13:13;2.97;;;2.22;;
39482;SDS011;25682;48.438;1.482;2023-03-01T00:15:40;5.50;;;2.95;;
39482;SDS011;25682;48.438;1.482;2023-03-01T00:18:06;4.05;;;2.45;;
39482;SDS011;25682;48.438;1.482;2023-03-01T00:20:33;3.60;;;2.42;;
39482;SDS011;25682;48.438;1.482;2023-03-01T00:22:59;2.92;;;2.22;;
39482;SDS011;25682;48.438;1.482;2023-03-01T00:25:25;3.28;;;2.38;;
39482;SDS011;25682;48.438;1.482;2023-03-01T00:27:51;3.05;;;2.50;;
39482;SDS011;25682;48.438;1.482;2023-03-01T00:30:17;3.70;;;2.00;;
39482;SDS011;25682;48.438;1.482;2023-03-01T00:32:44;2.90;;;2.03;;
39482;SDS011;25682;48.438;1.482;2023-03-01T00:35:10;4.35;;;2.63;;
39482;SDS011;25682;48.438;1.482;2023-03-01T00:37:36;4.97;;;2.65;;
39482;SDS011;25682;48.438;1.482;2023-03-01T00:40:02;3.45;;;2.20;;
39482;SDS011;25682;48.438;1.482;2023-03-01T00:42:31;2.58;;;2.20;;
39482;SDS011;25682;48.438;1.482;2023-03-01T00:44:57;3.10;;;2.17;;
39482;SDS011;25682;48.438;1.482;2023-03-01T00:47:23;3.63;;;2.30;;
39482;SDS011;25682;48.438;1.482;2023-03-01T00:49:49;3.90;;;2.42;;
39482;SDS011;25682;48.438;1.482;2023-03-01T00:52:15;3.35;;;2.35;;
39482;SDS011;25682;48.438;1.482;2023-03-01T00:54:41;2.92;;;2.33;;
39482;SDS011;25682;48.438;1.482;2023-03-01T00:57:07;3.58;;;2.20;;
39482;SDS011;25682;48.438;1.482;2023-03-01T00:59:33;5.47;;;2.50;;
39482;SDS011;25682;48.438;1.482;2023-03-01T01:01:59;2.83;;;2.10;;
39482;SDS011;25682;48.438;1.482;2023-03-01T01:04:26;2.97;;;2.45;;
39482;SDS011;25682;48.438;1.482;2023-03-01T01:06:52;3.55;;;2.45;;
39482;SDS011;25682;48.438;1.482;2023-03-01T01:09:18;3.92;;;2.67;;
39482;SDS011;25682;48.438;1.482;2023-03-01T01:11:45;3.00;;;2.10;;
39482;SDS011;25682;48.438;1.482;2023-03-01T01:14:11;3.05;;;2.17;;
39482;SDS011;25682;48.438;1.482;2023-03-01T01:16:37;3.63;;;2.42;;
39482;SDS011;25682;48.438;1.482;2023-03-01T01:19:03;1.98;;;1.77;;
39482;SDS011;25682;48.438;1.482;2023-03-01T01:21:29;3.60;;;2.47;;
39482;SDS011;25682;48.438;1.482;2023-03-01T01:23:56;2.83;;;2.28;;
39482;SDS011;25682;48.438;1.482;2023-03-01T01:26:24;3.08;;;2.10;;
39482;SDS011;25682;48.438;1.482;2023-03-01T01:28:51;2.92;;;2.05;;
39482;SDS011;25682;48.438;1.482;2023-03-01T01:31:18;3.30;;;1.92;;
39482;SDS011;25682;48.438;1.482;2023-03-01T01:33:44;3.38;;;2.17;;
39482;SDS011;25682;48.438;1.482;2023-03-01T01:36:10;3.30;;;2.45;;
39482;SDS011;25682;48.438;1.482;2023-03-01T01:38:36;3.42;;;2.40;;
39482;SDS011;25682;48.438;1.482;2023-03-01T01:41:03;3.50;;;2.35;;
39482;SDS011;25682;48.438;1.482;2023-03-01T01:43:31;3.15;;;2.33;;
39482;SDS011;25682;48.438;1.482;2023-03-01T01:45:59;2.85;;;2.33;;
39482;SDS011;25682;48.438;1.482;2023-03-01T01:48:28;3.50;;;2.00;;
39482;SDS011;25682;48.438;1.482;2023-03-01T01:51:05;3.10;;;2.45;;
39482;SDS011;25682;48.438;1.482;2023-03-01T01:53:32;3.05;;;2.17;;
39482;SDS011;25682;48.438;1.482;2023-03-01T01:55:58;2.80;;;2.10;;
39482;SDS011;25682;48.438;1.482;2023-03-01T01:58:25;2.75;;;2.22;;
39482;SDS011;25682;48.438;1.482;2023-03-01T02:00:53;2.70;;;1.85;;
39482;SDS011;25682;48.438;1.482;2023-03-01T02:03:23;3.40;;;2.33;;
39482;SDS011;25682;48.438;1.482;2023-03-01T02:08:19;4.07;;;2.35;;
39482;SDS011;25682;48.438;1.482;2023-03-01T02:10:46;3.10;;;2.28;;
39482;SDS011;25682;48.438;1.482;2023-03-01T02:13:13;3.45;;;2.30;;
39482;SDS011;25682;48.438;1.482;2023-03-01T02:15:40;4.07;;;2.85;;
39482;SDS011;25682;48.438;1.482;2023-03-01T02:18:08;3.17;;;2.30;;
39482;SDS011;25682;48.438;1.482;2023-03-01T02:20:44;4.30;;;2.20;;
39482;SDS011;25682;48.438;1.482;2023-03-01T02:23:14;3.00;;;2.10;;
39482;SDS011;25682;48.438;1.482;2023-03-01T02:25:43;3.05;;;2.22;;
39482;SDS011;25682;48.438;1.482;2023-03-01T02:30:41;3.55;;;2.45;;
39482;SDS011;25682;48.438;1.482;2023-03-01T02:33:28;3.90;;;2.42;;
39482;SDS011;25682;48.438;1.482;2023-03-01T02:35:57;2.63;;;1.95;;
39482;SDS011;25682;48.438;1.482;2023-03-01T02:38:24;2.92;;;2.28;;
39482;SDS011;25682;48.438;1.482;2023-03-01T02:40:50;4.65;;;2.17;;
39482;SDS011;25682;48.438;1.482;2023-03-01T02:43:17;3.58;;;2.20;;
39482;SDS011;25682;48.438;1.482;2023-03-01T02:45:50;2.90;;;2.20;;
39482;SDS011;25682;48.438;1.482;2023-03-01T02:48:18;3.90;;;2.17;;
39482;SDS011;25682;48.438;1.482;2023-03-01T02:53:35;3.08;;;2.28;;
39482;SDS011;25682;48.438;1.482;2023-03-01T02:56:05;2.35;;;1.73;;
39482;SDS011;25682;48.438;1.482;2023-03-01T02:58:37;3.33;;;2.30;;
39482;SDS011;25682;48.438;1.482;2023-03-01T03:01:10;2.75;;;1.80;;
39482;SDS011;25682;48.438;1.482;2023-03-01T03:03:36;2.63;;;1.98;;
39482;SDS011;25682;48.438;1.482;2023-03-01T03:06:02;2.85;;;2.20;;
39482;SDS011;25682;48.438;1.482;2023-03-01T03:08:28;3.05;;;1.70;;
39482;SDS011;25682;48.438;1.482;2023-03-01T03:10:54;2.50;;;2.03;;
39482;SDS011;25682;48.438;1.482;2023-03-01T03:13:21;2.83;;;2.00;;
39482;SDS011;25682;48.438;1.482;2023-03-01T03:15:47;2.40;;;1.90;;
39482;SDS011;25682;48.438;1.482;2023-03-01T03:18:14;2.40;;;2.00;;
39482;SDS011;25682;48.438;1.482;2023-03-01T03:20:41;2.90;;;2.08;;
39482;SDS011;25682;48.438;1.482;2023-03-01T03:23:08;2.58;;;2.03;;
39482;SDS011;25682;48.438;1.482;2023-03-01T03:25:34;2.90;;;1.90;;
39482;SDS011;25682;48.438;1.482;2023-03-01T03:28:03;2.10;;;1.80;;
39482;SDS011;25682;48.438;1.482;2023-03-01T03:30:35;3.15;;;2.25;;
39482;SDS011;25682;48.438;1.482;2023-03-01T03:33:01;3.13;;;2.00;;
39482;SDS011;25682;48.438;1.482;2023-03-01T03:35:32;3.20;;;2.20;;
39482;SDS011;25682;48.438;1.482;2023-03-01T03:38:00;2.38;;;1.88;;
39482;SDS011;25682;48.438;1.482;2023-03-01T03:40:26;2.72;;;2.20;;
39482;SDS011;25682;48.438;1.482;2023-03-01T03:42:53;2.58;;;2.10;;
39482;SDS011;25682;48.438;1.482;2023-03-01T03:45:19;2.78;;;1.77;;
39482;SDS011;25682;48.438;1.482;2023-03-01T03:47:45;2.45;;;2.00;;
39482;SDS011;25682;48.438;1.482;2023-03-01T03:50:11;2.63;;;1.92;;
39482;SDS011;25682;48.438;1.482;2023-03-01T03:52:38;2.67;;;1.80;;
39482;SDS011;25682;48.438;1.482;2023-03-01T03:55:05;2.42;;;1.80;;
39482;SDS011;25682;48.438;1.482;2023-03-01T03:57:36;2.60;;;1.80;;
39482;SDS011;25682;48.438;1.482;2023-03-01T04:00:02;3.88;;;2.25;;
39482;SDS011;25682;48.438;1.482;2023-03-01T04:02:30;2.53;;;2.03;;
39482;SDS011;25682;48.438;1.482;2023-03-01T04:04:56;2.40;;;1.85;;
39482;SDS011;25682;48.438;1.482;2023-03-01T04:07:22;2.55;;;1.95;;
39482;SDS011;25682;48.438;1.482;2023-03-01T04:09:48;2.97;;;1.92;;
39482;SDS011;25682;48.438;1.482;2023-03-01T04:12:14;2.97;;;2.03;;
39482;SDS011;25682;48.438;1.482;2023-03-01T04:14:45;4.30;;;2.00;;
39482;SDS011;25682;48.438;1.482;2023-03-01T04:17:11;2.05;;;1.63;;
39482;SDS011;25682;48.438;1.482;2023-03-01T04:19:37;2.20;;;1.70;;
39482;SDS011;25682;48.438;1.482;2023-03-01T04:22:03;2.40;;;1.80;;
39482;SDS011;25682;48.438;1.482;2023-03-01T04:24:34;2.47;;;1.73;;
39482;SDS011;25682;48.438;1.482;2023-03-01T04:27:00;2.80;;;1.88;;
39482;SDS011;25682;48.438;1.482;2023-03-01T04:29:26;3.75;;;2.30;;
39482;SDS011;25682;48.438;1.482;2023-03-01T04:31:52;2.15;;;1.77;;
39482;SDS011;25682;48.438;1.482;2023-03-01T04:34:19;3.53;;;2.17;;
39482;SDS011;25682;48.438;1.482;2023-03-01T04:36:45;3.13;;;1.80;;
39482;SDS011;25682;48.438;1.482;2023-03-01T04:39:11;2.78;;;1.80;;
39482;SDS011;25682;48.438;1.482;2023-03-01T04:41:37;2.78;;;1.50;;
39482;SDS011;25682;48.438;1.482;2023-03-01T04:44:04;2.42;;;1.77;;
39482;SDS011;25682;48.438;1.482;2023-03-01T04:46:30;2.20;;;1.75;;
39482;SDS011;25682;48.438;1.482;2023-03-01T04:48:56;2.45;;;1.70;;
39482;SDS011;25682;48.438;1.482;2023-03-01T04:51:22;3.30;;;2.08;;
39482;SDS011;25682;48.438;1.482;2023-03-01T04:53:48;2.88;;;1.70;;
39482;SDS011;25682;48.438;1.482;2023-03-01T04:56:15;2.58;;;1.90;;
39482;SDS011;25682;48.438;1.482;2023-03-01T04:58:43;2.97;;;2.03;;
39482;SDS011;25682;48.438;1.482;2023-03-01T05:01:10;2.28;;;2.05;;
39482;SDS011;25682;48.438;1.482;2023-03-01T05:03:40;2.60;;;2.17;;
39482;SDS011;25682;48.438;1.482;2023-03-01T05:06:06;2.80;;;2.13;;
39482;SDS011;25682;48.438;1.482;2023-03-01T05:08:32;1.80;;;1.55;;
39482;SDS011;25682;48.438;1.482;2023-03-01T05:11:02;2.45;;;1.70;;
39482;SDS011;25682;48.438;1.482;2023-03-01T05:13:28;2.25;;;1.80;;
39482;SDS011;25682;48.438;1.482;2023-03-01T05:15:55;3.00;;;2.05;;
39482;SDS011;25682;48.438;1.482;2023-03-01T05:18:22;2.65;;;2.03;;
39482;SDS011;25682;48.438;1.482;2023-03-01T05:20:50;2.85;;;1.90;;
39482;SDS011;25682;48.438;1.482;2023-03-01T05:23:17;2.30;;;2.05;;
39482;SDS011;25682;48.438;1.482;2023-03-01T05:25:43;2.90;;;2.30;;
39482;SDS011;25682;48.438;1.482;2023-03-01T05:28:13;2.63;;;2.00;;
39482;SDS011;25682;48.438;1.482;2023-03-01T05:30:39;3.00;;;2.20;;
39482;SDS011;25682;48.438;1.482;2023-03-01T05:33:05;2.95;;;1.95;;
39482;SDS011;25682;48.438;1.482;2023-03-01T05:35:38;4.25;;;1.90;;
39482;SDS011;25682;48.438;1.482;2023-03-01T05:38:04;2.65;;;1.98;;
39482;SDS011;25682;48.438;1.482;2023-03-01T05:40:32;2.22;;;1.70;;
39482;SDS011;25682;48.438;1.482;2023-03-01T05:42:58;2.60;;;1.70;;
39482;SDS011;25682;48.438;1.482;2023-03-01T05:45:25;1.95;;;1.75;;
39482;SDS011;25682;48.438;1.482;2023-03-01T05:47:52;2.75;;;1.60;;
39482;SDS011;25682;48.438;1.482;2023-03-01T05:52:46;4.00;;;1.90;;
39482;SDS011;25682;48.438;1.482;2023-03-01T05:55:13;6.07;;;2.15;;
39482;SDS011;25682;48.438;1.482;2023-03-01T05:57:39;5.22;;;2.30;;
39482;SDS011;25682;48.438;1.482;2023-03-01T06:00:06;4.20;;;1.88;;
39482;SDS011;25682;48.438;1.482;2023-03-01T06:02:32;2.92;;;1.88;;
39482;SDS011;25682;48.438;1.482;2023-03-01T06:04:58;3.03;;;2.08;;
39482;SDS011;25682;48.438;1.482;2023-03-01T06:07:24;4.00;;;1.70;;
39482;SDS011;25682;48.438;1.482;2023-03-01T06:09:50;7.25;;;2.88;;
39482;SDS011;25682;48.438;1.482;2023-03-01T06:12:16;6.57;;;2.00;;
39482;SDS011;25682;48.438;1.482;2023-03-01T06:14:42;5.43;;;2.30;;
39482;SDS011;25682;48.438;1.482;2023-03-01T06:17:08;5.20;;;2.47;;
39482;SDS011;25682;48.438;1.482;2023-03-01T06:19:34;6.97;;;2.25;;
39482;SDS011;25682;48.438;1.482;2023-03-01T06:22:00;4.75;;;2.20;;
39482;SDS011;25682;48.438;1.482;2023-03-01T06:24:26;7.28;;;2.63;;
39482;SDS011;25682;48.438;1.482;2023-03-01T06:26:53;6.25;;;2.38;;
39482;SDS011;25682;48.438;1.482;2023-03-01T06:29:20;6.72;;;2.17;;
39482;SDS011;25682;48.438;1.482;2023-03-01T06:31:47;4.78;;;2.40;;
39482;SDS011;25682;48.438;1.482;2023-03-01T06:34:13;11.82;;;2.42;;
39482;SDS011;25682;48.438;1.482;2023-03-01T06:36:39;5.00;;;2.38;;
39482;SDS011;25682;48.438;1.482;2023-03-01T06:39:06;6.18;;;2.38;;
39482;SDS011;25682;48.438;1.482;2023-03-01T06:41:32;3.40;;;2.20;;
39482;SDS011;25682;48.438;1.482;2023-03-01T06:43:58;5.18;;;2.47;;
39482;SDS011;25682;48.438;1.482;2023-03-01T06:46:25;5.13;;;1.90;;
39482;SDS011;25682;48.438;1.482;2023-03-01T06:48:51;4.88;;;2.00;;
39482;SDS011;25682;48.438;1.482;2023-03-01T06:51:17;5.80;;;2.72;;
39482;SDS011;25682;48.438;1.482;2023-03-01T06:53:43;4.60;;;1.90;;
39482;SDS011;25682;48.438;1.482;2023-03-01T06:56:09;8.05;;;2.20;;
39482;SDS011;25682;48.438;1.482;2023-03-01T06:58:35;3.72;;;2.00;;
39482;SDS011;25682;48.438;1.482;2023-03-01T07:01:05;4.15;;;2.38;;
39482;SDS011;25682;48.438;1.482;2023-03-01T07:03:31;3.70;;;2.25;;
39482;SDS011;25682;48.438;1.482;2023-03-01T07:05:57;4.35;;;2.03;;
39482;SDS011;25682;48.438;1.482;2023-03-01T07:08:23;7.20;;;2.30;;
39482;SDS011;25682;48.438;1.482;2023-03-01T07:10:54;3.50;;;1.75;;
39482;SDS011;25682;48.438;1.482;2023-03-01T07:13:20;4.15;;;2.13;;
39482;SDS011;25682;48.438;1.482;2023-03-01T07:15:46;4.43;;;2.38;;
39482;SDS011;25682;48.438;1.482;2023-03-01T07:18:12;6.72;;;2.63;;
39482;SDS011;25682;48.438;1.482;2023-03-01T07:20:38;3.40;;;2.20;;
39482;SDS011;25682;48.438;1.482;2023-03-01T07:23:05;5.43;;;2.38;;
39482;SDS011;25682;48.438;1.482;2023-03-01T07:25:31;3.13;;;2.25;;
39482;SDS011;25682;48.438;1.482;2023-03-01T07:27:57;4.20;;;2.20;;
39482;SDS011;25682;48.438;1.482;2023-03-01T07:30:24;4.10;;;2.33;;
39482;SDS011;25682;48.438;1.482;2023-03-01T07:32:52;2.83;;;2.30;;
39482;SDS011;25682;48.438;1.482;2023-03-01T07:35:18;5.60;;;2.42;;
39482;SDS011;25682;48.438;1.482;2023-03-01T07:37:44;4.30;;;2.35;;
39482;SDS011;25682;48.438;1.482;2023-03-01T07:40:10;4.07;;;2.47;;
39482;SDS011;25682;48.438;1.482;2023-03-01T07:42:37;3.28;;;2.10;;
39482;SDS011;25682;48.438;1.482;2023-03-01T07:45:04;4.38;;;2.42;;
39482;SDS011;25682;48.438;1.482;2023-03-01T07:47:30;3.88;;;2.10;;
39482;SDS011;25682;48.438;1.482;2023-03-01T07:49:56;5.57;;;2.10;;
39482;SDS011;25682;48.438;1.482;2023-03-01T07:52:22;2.85;;;2.20;;
39482;SDS011;25682;48.438;1.482;2023-03-01T07:54:48;3.92;;;2.30;;
39482;SDS011;25682;48.438;1.482;2023-03-01T07:57:14;3.35;;;2.38;;
39482;SDS011;25682;48.438;1.482;2023-03-01T07:59:40;4.57;;;2.17;;
39482;SDS011;25682;48.438;1.482;2023-03-01T08:02:06;3.55;;;2.42;;
39482;SDS011;25682;48.438;1.482;2023-03-01T08:04:32;5.85;;;2.42;;
39482;SDS011;25682;48.438;1.482;2023-03-01T08:06:58;3.55;;;1.98;;
39482;SDS011;25682;48.438;1.482;2023-03-01T08:09:24;4.80;;;2.97;;
39482;SDS011;25682;48.438;1.482;2023-03-01T08:11:50;4.28;;;2.40;;
39482;SDS011;25682;48.438;1.482;2023-03-01T08:14:16;3.47;;;2.60;;
39482;SDS011;25682;48.438;1.482;2023-03-01T08:16:42;4.63;;;2.40;;
39482;SDS011;25682;48.438;1.482;2023-03-01T08:19:09;3.92;;;2.38;;
39482;SDS011;25682;48.438;1.482;2023-03-01T08:21:36;3.97;;;2.75;;
39482;SDS011;25682;48.438;1.482;2023-03-01T08:24:03;3.67;;;2.05;;
39482;SDS011;25682;48.438;1.482;2023-03-01T08:26:29;3.10;;;2.45;;
39482;SDS011;25682;48.438;1.482;2023-03-01T08:28:55;4.07;;;2.75;;
39482;SDS011;25682;48.438;1.482;2023-03-01T08:31:26;3.90;;;2.25;;
39482;SDS011;25682;48.438;1.482;2023-03-01T08:33:53;2.90;;;2.55;;
39482;SDS011;25682;48.438;1.482;2023-03-01T08:36:23;3.70;;;2.80;;
39482;SDS011;25682;48.438;1.482;2023-03-01T08:38:49;3.47;;;2.45;;
39482;SDS011;25682;48.438;1.482;2023-03-01T08:41:15;4.78;;;2.70;;
39482;SDS011;25682;48.438;1.482;2023-03-01T08:43:41;5.03;;;2.35;;
39482;SDS011;25682;48.438;1.482;2023-03-01T08:46:07;5.72;;;2.65;;
39482;SDS011;25682;48.438;1.482;2023-03-01T08:48:33;2.85;;;2.05;;
39482;SDS011;25682;48.438;1.482;2023-03-01T08:51:07;3.60;;;2.75;;
39482;SDS011;25682;48.438;1.482;2023-03-01T08:53:33;3.70;;;2.58;;
39482;SDS011;25682;48.438;1.482;2023-03-01T08:55:59;3.20;;;2.53;;
39482;SDS011;25682;48.438;1.482;2023-03-01T08:58:27;3.35;;;2.55;;
39482;SDS011;25682;48.438;1.482;2023-03-01T09:00:53;3.17;;;2.30;;
39482;SDS011;25682;48.438;1.482;2023-03-01T09:03:21;3.03;;;2.38;;
39482;SDS011;25682;48.438;1.482;2023-03-01T09:05:47;5.57;;;2.50;;
39482;SDS011;25682;48.438;1.482;2023-03-01T09:08:15;3.40;;;2.53;;
39482;SDS011;25682;48.438;1.482;2023-03-01T09:10:41;3.25;;;2.63;;
39482;SDS011;25682;48.438;1.482;2023-03-01T09:13:07;2.65;;;2.15;;
39482;SDS011;25682;48.438;1.482;2023-03-01T09:15:33;3.63;;;2.67;;
39482;SDS011;25682;48.438;1.482;2023-03-01T09:17:59;3.13;;;2.58;;
39482;SDS011;25682;48.438;1.482;2023-03-01T09:20:25;3.90;;;2.75;;
39482;SDS011;25682;48.438;1.482;2023-03-01T09:22:51;3.15;;;2.40;;
39482;SDS011;25682;48.438;1.482;2023-03-01T09:25:17;2.67;;;2.10;;
39482;SDS011;25682;48.438;1.482;2023-03-01T09:27:43;4.15;;;2.55;;
39482;SDS011;25682;48.438;1.482;2023-03-01T09:30:10;3.60;;;2.42;;
39482;SDS011;25682;48.438;1.482;2023-03-01T09:32:36;4.20;;;2.53;;
39482;SDS011;25682;48.438;1.482;2023-03-01T09:35:02;3.63;;;2.47;;
39482;SDS011;25682;48.438;1.482;2023-03-01T09:37:32;3.75;;;2.40;;
39482;SDS011;25682;48.438;1.482;2023-03-01T09:39:58;4.68;;;2.72;;
39482;SDS011;25682;48.438;1.482;2023-03-01T09:42:24;4.22;;;2.70;;
39482;SDS011;25682;48.438;1.482;2023-03-01T09:47:17;3.13;;;2.63;;
39482;SDS011;25682;48.438;1.482;2023-03-01T09:49:44;3.80;;;2.60;;
39482;SDS011;25682;48.438;1.482;2023-03-01T09:54:58;4.18;;;2.63;;
39482;SDS011;25682;48.438;1.482;2023-03-01T09:57:37;4.30;;;2.80;;
39482;SDS011;25682;48.438;1.482;2023-03-01T10:02:41;4.00;;;2.70;;
39482;SDS011;25682;48.438;1.482;2023-03-01T10:05:14;3.15;;;2.55;;
39482;SDS011;25682;48.438;1.482;2023-03-01T10:10:17;3.78;;;2.35;;
39482;SDS011;25682;48.438;1.482;2023-03-01T10:12:47;3.47;;;2.60;;
39482;SDS011;25682;48.438;1.482;2023-03-01T10:15:14;4.82;;;2.50;;
39482;SDS011;25682;48.438;1.482;2023-03-01T10:17:55;3.25;;;2.10;;
39482;SDS011;25682;48.438;1.482;2023-03-01T10:20:23;3.80;;;2.70;;
39482;SDS011;25682;48.438;1.482;2023-03-01T10:22:50;4.35;;;2.20;;
39482;SDS011;25682;48.438;1.482;2023-03-01T10:27:59;5.82;;;2.22;;
39482;SDS011;25682;48.438;1.482;2023-03-01T10:32:52;2.75;;;2.17;;
39482;SDS011;25682;48.438;1.482;2023-03-01T10:35:21;5.45;;;2.70;;
39482;SDS011;25682;48.438;1.482;2023-03-01T10:37:58;3.20;;;2.35;;
39482;SDS011;25682;48.438;1.482;2023-03-01T10:40:28;3.03;;;2.30;;
39482;SDS011;25682;48.438;1.482;2023-03-01T10:42:54;2.50;;;1.90;;
39482;SDS011;25682;48.438;1.482;2023-03-01T10:45:41;3.55;;;2.25;;
39482;SDS011;25682;48.438;1.482;2023-03-01T10:50:44;4.13;;;2.40;;
39482;SDS011;25682;48.438;1.482;2023-03-01T10:53:55;3.40;;;2.60;;
39482;SDS011;25682;48.438;1.482;2023-03-01T10:56:00;3.78;;;2.20;;
39482;SDS011;25682;48.438;1.482;2023-03-01T10:58:26;4.47;;;2.17;;
39482;SDS011;25682;48.438;1.482;2023-03-01T11:00:54;3.50;;;2.05;;
39482;SDS011;25682;48.438;1.482;2023-03-01T11:08:31;3.10;;;2.08;;
39482;SDS011;25682;48.438;1.482;2023-03-01T11:11:18;3.50;;;2.40;;
39482;SDS011;25682;48.438;1.482;2023-03-01T11:18:58;3.17;;;2.42;;
39482;SDS011;25682;48.438;1.482;2023-03-01T11:21:25;4.50;;;2.20;;
39482;SDS011;25682;48.438;1.482;2023-03-01T11:23:52;2.83;;;1.88;;
39482;SDS011;25682;48.438;1.482;2023-03-01T11:26:18;3.75;;;2.60;;
39482;SDS011;25682;48.438;1.482;2023-03-01T11:28:46;3.15;;;2.53;;
39482;SDS011;25682;48.438;1.482;2023-03-01T11:31:14;4.78;;;2.22;;
39482;SDS011;25682;48.438;1.482;2023-03-01T11:38:55;4.57;;;2.85;;
39482;SDS011;25682;48.438;1.482;2023-03-01T11:41:26;5.38;;;2.40;;
39482;SDS011;25682;48.438;1.482;2023-03-01T11:43:56;4.90;;;2.30;;
39482;SDS011;25682;48.438;1.482;2023-03-01T11:49:01;5.80;;;2.50;;
39482;SDS011;25682;48.438;1.482;2023-03-01T11:56:32;4.60;;;2.42;;
39482;SDS011;25682;48.438;1.482;2023-03-01T12:07:00;9.52;;;4.40;;
39482;SDS011;25682;48.438;1.482;2023-03-01T12:12:45;5.15;;;3.17;;
39482;SDS011;25682;48.438;1.482;2023-03-01T12:20:28;7.85;;;3.22;;
39482;SDS011;25682;48.438;1.482;2023-03-01T12:23:02;8.38;;;2.90;;
39482;SDS011;25682;48.438;1.482;2023-03-01T12:25:35;20.48;;;9.77;;
39482;SDS011;25682;48.438;1.482;2023-03-01T12:28:04;297.30;;;152.38;;
39482;SDS011;25682;48.438;1.482;2023-03-01T12:35:45;599.50;;;384.38;;
39482;SDS011;25682;48.438;1.482;2023-03-01T12:43:34;629.03;;;421.02;;
39482;SDS011;25682;48.438;1.482;2023-03-01T12:51:11;491.10;;;316.27;;
39482;SDS011;25682;48.438;1.482;2023-03-01T12:53:43;655.05;;;449.30;;
39482;SDS011;25682;48.438;1.482;2023-03-01T12:56:15;577.05;;;388.40;;
39482;SDS011;25682;48.438;1.482;2023-03-01T13:01:49;601.55;;;411.30;;
39482;SDS011;25682;48.438;1.482;2023-03-01T13:04:18;551.45;;;380.30;;
39482;SDS011;25682;48.438;1.482;2023-03-01T13:07:29;424.80;;;279.60;;
39482;SDS011;25682;48.438;1.482;2023-03-01T13:09:40;428.25;;;277.60;;
39482;SDS011;25682;48.438;1.482;2023-03-01T13:14:53;465.98;;;311.70;;
39482;SDS011;25682;48.438;1.482;2023-03-01T13:17:33;455.85;;;306.25;;
39482;SDS011;25682;48.438;1.482;2023-03-01T13:19:59;442.85;;;293.70;;
39482;SDS011;25682;48.438;1.482;2023-03-01T13:22:27;447.15;;;292.58;;
39482;SDS011;25682;48.438;1.482;2023-03-01T13:25:11;430.95;;;278.58;;
39482;SDS011;25682;48.438;1.482;2023-03-01T13:27:38;424.45;;;269.65;;
39482;SDS011;25682;48.438;1.482;2023-03-01T13:30:12;406.15;;;259.75;;
39482;SDS011;25682;48.438;1.482;2023-03-01T13:32:50;417.23;;;256.40;;
39482;SDS011;25682;48.438;1.482;2023-03-01T13:37:45;386.20;;;234.85;;
39482;SDS011;25682;48.438;1.482;2023-03-01T13:42:47;350.23;;;220.68;;
39482;SDS011;25682;48.438;1.482;2023-03-01T13:45:18;352.55;;;216.23;;
39482;SDS011;25682;48.438;1.482;2023-03-01T13:47:44;338.65;;;212.30;;
39482;SDS011;25682;48.438;1.482;2023-03-01T13:50:24;327.38;;;205.30;;
39482;SDS011;25682;48.438;1.482;2023-03-01T13:52:52;318.90;;;197.50;;
39482;SDS011;25682;48.438;1.482;2023-03-01T13:58:05;237.40;;;141.80;;
39482;SDS011;25682;48.438;1.482;2023-03-01T14:00:40;283.23;;;172.50;;
39482;SDS011;25682;48.438;1.482;2023-03-01T14:05:35;270.50;;;162.82;;
39482;SDS011;25682;48.438;1.482;2023-03-01T14:08:04;271.00;;;168.88;;
39482;SDS011;25682;48.438;1.482;2023-03-01T14:10:44;249.10;;;151.93;;
39482;SDS011;25682;48.438;1.482;2023-03-01T14:18:29;215.90;;;133.68;;
39482;SDS011;25682;48.438;1.482;2023-03-01T14:20:58;212.45;;;127.63;;
39482;SDS011;25682;48.438;1.482;2023-03-01T14:23:24;198.73;;;125.53;;
39482;SDS011;25682;48.438;1.482;2023-03-01T14:25:53;200.73;;;122.35;;
39482;SDS011;25682;48.438;1.482;2023-03-01T14:28:24;197.10;;;123.57;;
39482;SDS011;25682;48.438;1.482;2023-03-01T14:30:52;193.05;;;120.80;;
39482;SDS011;25682;48.438;1.482;2023-03-01T14:33:27;186.40;;;116.00;;
39482;SDS011;25682;48.438;1.482;2023-03-01T14:36:07;174.35;;;111.70;;
39482;SDS011;25682;48.438;1.482;2023-03-01T14:41:06;163.65;;;104.40;;
39482;SDS011;25682;48.438;1.482;2023-03-01T14:43:33;135.57;;;92.07;;
39482;SDS011;25682;48.438;1.482;2023-03-01T14:45:59;164.55;;;100.57;;
39482;SDS011;25682;48.438;1.482;2023-03-01T14:48:26;151.07;;;95.90;;
39482;SDS011;25682;48.438;1.482;2023-03-01T14:50:52;156.85;;;98.15;;
39482;SDS011;25682;48.438;1.482;2023-03-01T14:53:20;144.45;;;94.70;;
39482;SDS011;25682;48.438;1.482;2023-03-01T14:55:48;144.05;;;90.97;;
39482;SDS011;25682;48.438;1.482;2023-03-01T14:58:18;142.73;;;89.57;;
39482;SDS011;25682;48.438;1.482;2023-03-01T15:00:54;140.85;;;86.85;;
39482;SDS011;25682;48.438;1.482;2023-03-01T15:03:27;139.75;;;86.55;;
39482;SDS011;25682;48.438;1.482;2023-03-01T15:05:56;132.30;;;82.10;;
39482;SDS011;25682;48.438;1.482;2023-03-01T15:08:25;125.82;;;77.90;;
39482;SDS011;25682;48.438;1.482;2023-03-01T15:13:24;123.38;;;75.28;;
39482;SDS011;25682;48.438;1.482;2023-03-01T15:15:51;111.00;;;63.05;;
39482;SDS011;25682;48.438;1.482;2023-03-01T15:18:26;120.97;;;66.47;;
39482;SDS011;25682;48.438;1.482;2023-03-01T15:20:53;116.05;;;67.57;;
39482;SDS011;25682;48.438;1.482;2023-03-01T15:23:26;110.97;;;68.38;;
39482;SDS011;25682;48.438;1.482;2023-03-01T15:25:53;97.70;;;61.35;;
39482;SDS011;25682;48.438;1.482;2023-03-01T15:28:37;102.40;;;62.22;;
39482;SDS011;25682;48.438;1.482;2023-03-01T15:31:21;104.70;;;62.17;;
39482;SDS011;25682;48.438;1.482;2023-03-01T15:33:47;94.07;;;59.42;;
39482;SDS011;25682;48.438;1.482;2023-03-01T15:38:59;106.82;;;56.95;;
39482;SDS011;25682;48.438;1.482;2023-03-01T15:41:29;93.15;;;55.97;;
39482;SDS011;25682;48.438;1.482;2023-03-01T15:43:56;95.32;;;55.95;;
39482;SDS011;25682;48.438;1.482;2023-03-01T15:46:33;97.55;;;55.42;;
39482;SDS011;25682;48.438;1.482;2023-03-01T15:49:01;88.82;;;51.42;;
39482;SDS011;25682;48.438;1.482;2023-03-01T15:51:32;86.35;;;51.22;;
39482;SDS011;25682;48.438;1.482;2023-03-01T15:53:59;82.90;;;49.83;;
39482;SDS011;25682;48.438;1.482;2023-03-01T15:56:26;78.72;;;48.75;;
39482;SDS011;25682;48.438;1.482;2023-03-01T15:58:52;87.63;;;47.78;;
39482;SDS011;25682;48.438;1.482;2023-03-01T16:01:18;78.82;;;46.40;;
39482;SDS011;25682;48.438;1.482;2023-03-01T16:03:44;77.80;;;47.85;;
39482;SDS011;25682;48.438;1.482;2023-03-01T16:06:11;80.75;;;44.42;;
39482;SDS011;25682;48.438;1.482;2023-03-01T16:08:37;75.05;;;42.55;;
39482;SDS011;25682;48.438;1.482;2023-03-01T16:11:04;66.68;;;41.65;;
39482;SDS011;25682;48.438;1.482;2023-03-01T16:13:31;61.88;;;41.10;;
39482;SDS011;25682;48.438;1.482;2023-03-01T16:15:57;68.13;;;41.05;;
39482;SDS011;25682;48.438;1.482;2023-03-01T16:18:23;66.13;;;39.00;;
39482;SDS011;25682;48.438;1.482;2023-03-01T16:20:50;64.43;;;40.22;;
39482;SDS011;25682;48.438;1.482;2023-03-01T16:23:16;58.20;;;37.40;;
39482;SDS011;25682;48.438;1.482;2023-03-01T16:25:42;60.25;;;37.45;;
39482;SDS011;25682;48.438;1.482;2023-03-01T16:28:08;57.13;;;35.40;;
39482;SDS011;25682;48.438;1.482;2023-03-01T16:30:35;60.20;;;33.17;;
39482;SDS011;25682;48.438;1.482;2023-03-01T16:33:01;54.15;;;33.28;;
39482;SDS011;25682;48.438;1.482;2023-03-01T16:35:27;53.05;;;33.33;;